sensor_id;sensor_type;location;lat;lon;timestamp;P1;durP1;ratioP1;P2;durP2;ratioP2
5622;SDS011;2833;50.432;10.706;2023-08-30T00:00:40;4.77;;;2.00;;
5622;SDS011;2833;50.432;10.706;2023-08-30T00:03:06;1.70;;;1.60;;
5622;SDS011;2833;50.432;10.706;2023-08-30T00:05:31;6.50;;;2.03;;
5622;SDS011;2833;50.432;10.706;2023-08-30T00:07:57;2.20;;;1.70;;
5622;SDS011;2833;50.432;10.706;2023-08-30T00:10:22;1.93;;;1.63;;
5622;SDS011;2833;50.432;10.706;2023-08-30T00:12:47;1.50;;;1.40;;
5622;SDS011;2833;50.432;10.706;2023-08-30T00:15:13;3.10;;;2.03;;
5622;SDS011;2833;50.432;10.706;2023-08-30T00:17:39;1.63;;;1.53;;
5622;SDS011;2833;50.432;10.706;2023-08-30T00:20:04;1.57;;;1.47;;
5622;SDS011;2833;50.432;10.706;2023-08-30T00:22:29;2.07;;;1.90;;
5622;SDS011;2833;50.432;10.706;2023-08-30T00:24:56;1.60;;;1.50;;
5622;SDS011;2833;50.432;10.706;2023-08-30T00:27:21;2.20;;;2.00;;
5622;SDS011;2833;50.432;10.706;2023-08-30T00:29:46;4.60;;;1.67;;
5622;SDS011;2833;50.432;10.706;2023-08-30T00:32:12;5.40;;;2.20;;
5622;SDS011;2833;50.432;10.706;2023-08-30T00:34:37;2.90;;;1.80;;
5622;SDS011;2833;50.432;10.706;2023-08-30T00:37:02;2.10;;;2.00;;
5622;SDS011;2833;50.432;10.706;2023-08-30T00:39:27;7.43;;;2.17;;
5622;SDS011;2833;50.432;10.706;2023-08-30T00:41:52;4.27;;;1.80;;
5622;SDS011;2833;50.432;10.706;2023-08-30T00:44:18;2.67;;;2.10;;
5622;SDS011;2833;50.432;10.706;2023-08-30T00:46:43;2.17;;;1.97;;
5622;SDS011;2833;50.432;10.706;2023-08-30T00:49:08;2.00;;;1.90;;
5622;SDS011;2833;50.432;10.706;2023-08-30T00:51:33;1.73;;;1.63;;
5622;SDS011;2833;50.432;10.706;2023-08-30T00:54:02;6.10;;;1.80;;
5622;SDS011;2833;50.432;10.706;2023-08-30T00:56:27;2.00;;;1.80;;
5622;SDS011;2833;50.432;10.706;2023-08-30T00:58:53;4.00;;;1.90;;
5622;SDS011;2833;50.432;10.706;2023-08-30T01:01:18;2.50;;;2.20;;
5622;SDS011;2833;50.432;10.706;2023-08-30T01:03:44;2.20;;;2.00;;
5622;SDS011;2833;50.432;10.706;2023-08-30T01:06:09;2.00;;;1.90;;
5622;SDS011;2833;50.432;10.706;2023-08-30T01:08:35;1.80;;;1.70;;
5622;SDS011;2833;50.432;10.706;2023-08-30T01:13:47;2.07;;;1.90;;
5622;SDS011;2833;50.432;10.706;2023-08-30T01:16:14;2.00;;;1.90;;
5622;SDS011;2833;50.432;10.706;2023-08-30T01:18:41;3.43;;;1.90;;
5622;SDS011;2833;50.432;10.706;2023-08-30T01:21:09;2.13;;;2.00;;
5622;SDS011;2833;50.432;10.706;2023-08-30T01:23:42;2.00;;;1.90;;
5622;SDS011;2833;50.432;10.706;2023-08-30T01:28:55;10.30;;;2.23;;
5622;SDS011;2833;50.432;10.706;2023-08-30T01:31:21;3.37;;;1.90;;
5622;SDS011;2833;50.432;10.706;2023-08-30T01:33:48;2.10;;;1.90;;
5622;SDS011;2833;50.432;10.706;2023-08-30T01:36:15;2.00;;;1.90;;
5622;SDS011;2833;50.432;10.706;2023-08-30T01:38:41;4.63;;;2.07;;
5622;SDS011;2833;50.432;10.706;2023-08-30T01:41:06;2.10;;;2.00;;
5622;SDS011;2833;50.432;10.706;2023-08-30T01:43:32;3.93;;;2.20;;
5622;SDS011;2833;50.432;10.706;2023-08-30T01:45:58;2.30;;;2.10;;
5622;SDS011;2833;50.432;10.706;2023-08-30T01:48:25;2.20;;;1.90;;
5622;SDS011;2833;50.432;10.706;2023-08-30T01:50:51;2.50;;;2.27;;
5622;SDS011;2833;50.432;10.706;2023-08-30T01:53:16;3.63;;;2.37;;
5622;SDS011;2833;50.432;10.706;2023-08-30T01:55:42;4.50;;;2.50;;
5622;SDS011;2833;50.432;10.706;2023-08-30T01:58:07;4.47;;;2.40;;
5622;SDS011;2833;50.432;10.706;2023-08-30T02:00:34;2.40;;;2.20;;
5622;SDS011;2833;50.432;10.706;2023-08-30T02:02:59;9.20;;;2.40;;
5622;SDS011;2833;50.432;10.706;2023-08-30T02:05:24;2.13;;;1.90;;
5622;SDS011;2833;50.432;10.706;2023-08-30T02:08:03;2.90;;;2.17;;
5622;SDS011;2833;50.432;10.706;2023-08-30T02:10:31;2.63;;;2.43;;
5622;SDS011;2833;50.432;10.706;2023-08-30T02:12:59;2.37;;;2.17;;
5622;SDS011;2833;50.432;10.706;2023-08-30T02:15:25;4.70;;;2.23;;
5622;SDS011;2833;50.432;10.706;2023-08-30T02:17:51;2.70;;;2.43;;
5622;SDS011;2833;50.432;10.706;2023-08-30T02:20:16;5.13;;;2.47;;
5622;SDS011;2833;50.432;10.706;2023-08-30T02:22:42;2.50;;;2.30;;
5622;SDS011;2833;50.432;10.706;2023-08-30T02:25:07;3.63;;;2.30;;
5622;SDS011;2833;50.432;10.706;2023-08-30T02:27:33;2.53;;;2.13;;
5622;SDS011;2833;50.432;10.706;2023-08-30T02:29:59;3.30;;;2.40;;
5622;SDS011;2833;50.432;10.706;2023-08-30T02:32:25;3.43;;;2.10;;
5622;SDS011;2833;50.432;10.706;2023-08-30T02:34:51;2.50;;;2.10;;
5622;SDS011;2833;50.432;10.706;2023-08-30T02:37:17;3.27;;;1.90;;
5622;SDS011;2833;50.432;10.706;2023-08-30T02:39:42;7.70;;;2.63;;
5622;SDS011;2833;50.432;10.706;2023-08-30T02:42:07;2.80;;;2.47;;
5622;SDS011;2833;50.432;10.706;2023-08-30T02:44:32;4.53;;;3.53;;
5622;SDS011;2833;50.432;10.706;2023-08-30T02:46:58;5.70;;;3.50;;
5622;SDS011;2833;50.432;10.706;2023-08-30T02:49:23;4.00;;;3.57;;
5622;SDS011;2833;50.432;10.706;2023-08-30T02:51:48;4.00;;;3.10;;
5622;SDS011;2833;50.432;10.706;2023-08-30T02:54:13;3.30;;;2.70;;
5622;SDS011;2833;50.432;10.706;2023-08-30T02:56:39;4.57;;;3.33;;
5622;SDS011;2833;50.432;10.706;2023-08-30T02:59:05;4.10;;;3.10;;
5622;SDS011;2833;50.432;10.706;2023-08-30T03:01:30;4.07;;;2.90;;
5622;SDS011;2833;50.432;10.706;2023-08-30T03:03:55;3.30;;;3.00;;
5622;SDS011;2833;50.432;10.706;2023-08-30T03:06:20;8.70;;;3.20;;
5622;SDS011;2833;50.432;10.706;2023-08-30T03:08:46;3.57;;;2.60;;
5622;SDS011;2833;50.432;10.706;2023-08-30T03:11:11;3.60;;;3.20;;
5622;SDS011;2833;50.432;10.706;2023-08-30T03:13:37;6.70;;;3.00;;
5622;SDS011;2833;50.432;10.706;2023-08-30T03:16:09;3.07;;;2.53;;
5622;SDS011;2833;50.432;10.706;2023-08-30T03:18:34;3.40;;;3.07;;
5622;SDS011;2833;50.432;10.706;2023-08-30T03:21:00;3.00;;;2.80;;
5622;SDS011;2833;50.432;10.706;2023-08-30T03:23:26;4.37;;;2.73;;
5622;SDS011;2833;50.432;10.706;2023-08-30T03:25:51;3.63;;;2.20;;
5622;SDS011;2833;50.432;10.706;2023-08-30T03:28:17;2.33;;;2.20;;
5622;SDS011;2833;50.432;10.706;2023-08-30T03:30:42;2.50;;;2.23;;
5622;SDS011;2833;50.432;10.706;2023-08-30T03:33:07;2.90;;;2.60;;
5622;SDS011;2833;50.432;10.706;2023-08-30T03:35:33;2.50;;;2.10;;
5622;SDS011;2833;50.432;10.706;2023-08-30T03:37:58;3.30;;;2.50;;
5622;SDS011;2833;50.432;10.706;2023-08-30T03:40:24;2.97;;;2.57;;
5622;SDS011;2833;50.432;10.706;2023-08-30T03:42:49;2.50;;;2.30;;
5622;SDS011;2833;50.432;10.706;2023-08-30T03:45:14;2.80;;;2.60;;
5622;SDS011;2833;50.432;10.706;2023-08-30T03:47:39;2.47;;;2.27;;
5622;SDS011;2833;50.432;10.706;2023-08-30T03:50:05;2.90;;;2.60;;
5622;SDS011;2833;50.432;10.706;2023-08-30T03:52:30;3.03;;;2.70;;
5622;SDS011;2833;50.432;10.706;2023-08-30T03:54:55;4.53;;;2.90;;
5622;SDS011;2833;50.432;10.706;2023-08-30T03:57:21;5.70;;;2.40;;
5622;SDS011;2833;50.432;10.706;2023-08-30T03:59:46;3.33;;;2.30;;
5622;SDS011;2833;50.432;10.706;2023-08-30T04:02:11;2.30;;;2.20;;
5622;SDS011;2833;50.432;10.706;2023-08-30T04:04:36;2.60;;;2.40;;
5622;SDS011;2833;50.432;10.706;2023-08-30T04:07:01;2.37;;;2.17;;
5622;SDS011;2833;50.432;10.706;2023-08-30T04:09:27;2.10;;;2.00;;
5622;SDS011;2833;50.432;10.706;2023-08-30T04:11:52;2.40;;;2.20;;
5622;SDS011;2833;50.432;10.706;2023-08-30T04:14:17;2.40;;;2.20;;
5622;SDS011;2833;50.432;10.706;2023-08-30T04:16:43;2.20;;;2.00;;
5622;SDS011;2833;50.432;10.706;2023-08-30T04:19:08;2.03;;;1.90;;
5622;SDS011;2833;50.432;10.706;2023-08-30T04:21:33;2.20;;;2.10;;
5622;SDS011;2833;50.432;10.706;2023-08-30T04:23:58;2.50;;;2.13;;
5622;SDS011;2833;50.432;10.706;2023-08-30T04:26:24;2.03;;;1.83;;
5622;SDS011;2833;50.432;10.706;2023-08-30T04:28:49;2.07;;;1.97;;
5622;SDS011;2833;50.432;10.706;2023-08-30T04:31:14;12.60;;;6.97;;
5622;SDS011;2833;50.432;10.706;2023-08-30T04:33:39;6.20;;;5.00;;
5622;SDS011;2833;50.432;10.706;2023-08-30T04:36:04;18.00;;;12.90;;
5622;SDS011;2833;50.432;10.706;2023-08-30T04:38:30;16.73;;;12.10;;
5622;SDS011;2833;50.432;10.706;2023-08-30T04:40:58;14.60;;;8.40;;
5622;SDS011;2833;50.432;10.706;2023-08-30T04:43:24;5.20;;;3.90;;
5622;SDS011;2833;50.432;10.706;2023-08-30T04:45:49;3.80;;;3.13;;
5622;SDS011;2833;50.432;10.706;2023-08-30T04:48:15;7.90;;;6.30;;
5622;SDS011;2833;50.432;10.706;2023-08-30T04:50:40;6.23;;;3.70;;
5622;SDS011;2833;50.432;10.706;2023-08-30T04:53:05;3.07;;;2.83;;
5622;SDS011;2833;50.432;10.706;2023-08-30T04:55:31;2.70;;;2.50;;
5622;SDS011;2833;50.432;10.706;2023-08-30T04:57:56;3.87;;;2.40;;
5622;SDS011;2833;50.432;10.706;2023-08-30T05:00:22;4.97;;;2.20;;
5622;SDS011;2833;50.432;10.706;2023-08-30T05:02:47;2.80;;;2.50;;
5622;SDS011;2833;50.432;10.706;2023-08-30T05:05:13;2.60;;;2.40;;
5622;SDS011;2833;50.432;10.706;2023-08-30T05:07:38;2.63;;;2.30;;
5622;SDS011;2833;50.432;10.706;2023-08-30T05:10:04;2.83;;;2.63;;
5622;SDS011;2833;50.432;10.706;2023-08-30T05:12:29;4.40;;;3.13;;
5622;SDS011;2833;50.432;10.706;2023-08-30T05:14:54;3.23;;;2.93;;
5622;SDS011;2833;50.432;10.706;2023-08-30T05:17:19;2.87;;;2.40;;
5622;SDS011;2833;50.432;10.706;2023-08-30T05:19:45;2.60;;;2.40;;
5622;SDS011;2833;50.432;10.706;2023-08-30T05:22:10;3.20;;;2.90;;
5622;SDS011;2833;50.432;10.706;2023-08-30T05:24:35;2.60;;;2.40;;
5622;SDS011;2833;50.432;10.706;2023-08-30T05:27:02;2.93;;;2.70;;
5622;SDS011;2833;50.432;10.706;2023-08-30T05:29:27;3.00;;;2.80;;
5622;SDS011;2833;50.432;10.706;2023-08-30T05:31:52;2.40;;;2.27;;
5622;SDS011;2833;50.432;10.706;2023-08-30T05:34:18;2.63;;;2.47;;
5622;SDS011;2833;50.432;10.706;2023-08-30T05:36:43;3.13;;;2.83;;
5622;SDS011;2833;50.432;10.706;2023-08-30T05:39:08;4.73;;;2.73;;
5622;SDS011;2833;50.432;10.706;2023-08-30T05:41:33;2.67;;;2.47;;
5622;SDS011;2833;50.432;10.706;2023-08-30T05:43:59;2.70;;;2.50;;
5622;SDS011;2833;50.432;10.706;2023-08-30T05:46:24;3.83;;;2.57;;
5622;SDS011;2833;50.432;10.706;2023-08-30T05:48:49;3.00;;;2.73;;
5622;SDS011;2833;50.432;10.706;2023-08-30T05:51:14;2.90;;;2.70;;
5622;SDS011;2833;50.432;10.706;2023-08-30T05:53:39;4.70;;;2.80;;
5622;SDS011;2833;50.432;10.706;2023-08-30T05:56:05;2.97;;;2.60;;
5622;SDS011;2833;50.432;10.706;2023-08-30T05:58:30;2.77;;;2.57;;
5622;SDS011;2833;50.432;10.706;2023-08-30T06:00:56;5.40;;;3.10;;
5622;SDS011;2833;50.432;10.706;2023-08-30T06:03:21;3.40;;;2.73;;
5622;SDS011;2833;50.432;10.706;2023-08-30T06:05:46;3.43;;;3.13;;
5622;SDS011;2833;50.432;10.706;2023-08-30T06:08:13;3.50;;;2.83;;
5622;SDS011;2833;50.432;10.706;2023-08-30T06:10:38;3.40;;;3.10;;
5622;SDS011;2833;50.432;10.706;2023-08-30T06:13:04;4.50;;;3.10;;
5622;SDS011;2833;50.432;10.706;2023-08-30T06:15:29;4.80;;;3.20;;
5622;SDS011;2833;50.432;10.706;2023-08-30T06:17:54;5.03;;;3.30;;
5622;SDS011;2833;50.432;10.706;2023-08-30T06:20:19;5.60;;;3.37;;
5622;SDS011;2833;50.432;10.706;2023-08-30T06:22:45;4.20;;;3.00;;
5622;SDS011;2833;50.432;10.706;2023-08-30T06:25:10;4.10;;;3.40;;
5622;SDS011;2833;50.432;10.706;2023-08-30T06:27:40;4.10;;;3.53;;
5622;SDS011;2833;50.432;10.706;2023-08-30T06:30:06;3.40;;;3.10;;
5622;SDS011;2833;50.432;10.706;2023-08-30T06:32:31;8.83;;;3.27;;
5622;SDS011;2833;50.432;10.706;2023-08-30T06:34:56;5.73;;;3.67;;
5622;SDS011;2833;50.432;10.706;2023-08-30T06:37:23;4.33;;;3.30;;
5622;SDS011;2833;50.432;10.706;2023-08-30T06:39:49;5.03;;;3.83;;
5622;SDS011;2833;50.432;10.706;2023-08-30T06:42:14;3.57;;;3.27;;
5622;SDS011;2833;50.432;10.706;2023-08-30T06:44:39;4.30;;;2.93;;
5622;SDS011;2833;50.432;10.706;2023-08-30T06:47:05;4.43;;;3.90;;
5622;SDS011;2833;50.432;10.706;2023-08-30T06:49:30;5.13;;;4.13;;
5622;SDS011;2833;50.432;10.706;2023-08-30T06:51:56;4.40;;;4.00;;
5622;SDS011;2833;50.432;10.706;2023-08-30T06:54:21;6.50;;;4.37;;
5622;SDS011;2833;50.432;10.706;2023-08-30T06:56:59;4.37;;;4.00;;
5622;SDS011;2833;50.432;10.706;2023-08-30T06:59:25;4.57;;;4.17;;
5622;SDS011;2833;50.432;10.706;2023-08-30T07:01:50;4.90;;;4.50;;
5622;SDS011;2833;50.432;10.706;2023-08-30T07:04:15;5.10;;;4.50;;
5622;SDS011;2833;50.432;10.706;2023-08-30T07:06:41;6.83;;;4.70;;
5622;SDS011;2833;50.432;10.706;2023-08-30T07:09:06;5.53;;;4.57;;
5622;SDS011;2833;50.432;10.706;2023-08-30T07:11:31;5.87;;;4.40;;
5622;SDS011;2833;50.432;10.706;2023-08-30T07:13:57;6.00;;;5.03;;
5622;SDS011;2833;50.432;10.706;2023-08-30T07:16:22;5.83;;;4.73;;
5622;SDS011;2833;50.432;10.706;2023-08-30T07:18:47;5.33;;;4.83;;
5622;SDS011;2833;50.432;10.706;2023-08-30T07:21:12;8.33;;;5.17;;
5622;SDS011;2833;50.432;10.706;2023-08-30T07:23:38;4.90;;;4.40;;
5622;SDS011;2833;50.432;10.706;2023-08-30T07:26:03;5.50;;;4.90;;
5622;SDS011;2833;50.432;10.706;2023-08-30T07:28:29;7.60;;;4.60;;
5622;SDS011;2833;50.432;10.706;2023-08-30T07:31:01;5.27;;;4.60;;
5622;SDS011;2833;50.432;10.706;2023-08-30T07:33:26;7.00;;;5.70;;
5622;SDS011;2833;50.432;10.706;2023-08-30T07:35:53;5.10;;;4.60;;
5622;SDS011;2833;50.432;10.706;2023-08-30T07:38:18;6.40;;;4.70;;
5622;SDS011;2833;50.432;10.706;2023-08-30T07:40:43;5.27;;;4.30;;
5622;SDS011;2833;50.432;10.706;2023-08-30T07:43:09;4.57;;;4.17;;
5622;SDS011;2833;50.432;10.706;2023-08-30T07:45:34;4.63;;;4.23;;
5622;SDS011;2833;50.432;10.706;2023-08-30T07:47:59;4.20;;;3.80;;
5622;SDS011;2833;50.432;10.706;2023-08-30T07:50:24;4.70;;;4.30;;
5622;SDS011;2833;50.432;10.706;2023-08-30T07:52:49;4.47;;;4.07;;
5622;SDS011;2833;50.432;10.706;2023-08-30T07:55:15;4.27;;;3.80;;
5622;SDS011;2833;50.432;10.706;2023-08-30T07:57:40;4.57;;;4.17;;
5622;SDS011;2833;50.432;10.706;2023-08-30T08:00:05;4.33;;;3.90;;
5622;SDS011;2833;50.432;10.706;2023-08-30T08:02:31;4.70;;;4.30;;
5622;SDS011;2833;50.432;10.706;2023-08-30T08:04:56;5.27;;;4.77;;
5622;SDS011;2833;50.432;10.706;2023-08-30T08:07:21;4.60;;;4.13;;
5622;SDS011;2833;50.432;10.706;2023-08-30T08:09:46;4.80;;;4.27;;
5622;SDS011;2833;50.432;10.706;2023-08-30T08:12:11;5.00;;;4.50;;
5622;SDS011;2833;50.432;10.706;2023-08-30T08:14:37;4.60;;;4.10;;
5622;SDS011;2833;50.432;10.706;2023-08-30T08:17:02;4.00;;;3.70;;
5622;SDS011;2833;50.432;10.706;2023-08-30T08:19:29;5.30;;;4.13;;
5622;SDS011;2833;50.432;10.706;2023-08-30T08:21:54;4.47;;;4.07;;
5622;SDS011;2833;50.432;10.706;2023-08-30T08:24:19;4.60;;;4.20;;
5622;SDS011;2833;50.432;10.706;2023-08-30T08:26:45;4.30;;;3.90;;
5622;SDS011;2833;50.432;10.706;2023-08-30T08:29:11;8.50;;;5.30;;
5622;SDS011;2833;50.432;10.706;2023-08-30T08:31:36;6.30;;;4.70;;
5622;SDS011;2833;50.432;10.706;2023-08-30T08:34:05;4.63;;;4.23;;
5622;SDS011;2833;50.432;10.706;2023-08-30T08:36:31;5.30;;;4.80;;
5622;SDS011;2833;50.432;10.706;2023-08-30T08:38:56;5.63;;;5.13;;
5622;SDS011;2833;50.432;10.706;2023-08-30T08:41:21;5.40;;;4.90;;
5622;SDS011;2833;50.432;10.706;2023-08-30T08:43:47;4.80;;;4.27;;
5622;SDS011;2833;50.432;10.706;2023-08-30T08:46:13;6.00;;;5.40;;
5622;SDS011;2833;50.432;10.706;2023-08-30T08:48:41;5.63;;;4.97;;
5622;SDS011;2833;50.432;10.706;2023-08-30T08:51:06;5.73;;;5.10;;
5622;SDS011;2833;50.432;10.706;2023-08-30T08:53:31;5.20;;;4.70;;
5622;SDS011;2833;50.432;10.706;2023-08-30T08:55:58;5.77;;;5.17;;
5622;SDS011;2833;50.432;10.706;2023-08-30T08:58:23;6.23;;;5.50;;
5622;SDS011;2833;50.432;10.706;2023-08-30T09:00:48;7.10;;;6.40;;
5622;SDS011;2833;50.432;10.706;2023-08-30T09:03:14;8.87;;;5.47;;
5622;SDS011;2833;50.432;10.706;2023-08-30T09:05:39;6.80;;;5.90;;
5622;SDS011;2833;50.432;10.706;2023-08-30T09:08:05;6.50;;;5.90;;
5622;SDS011;2833;50.432;10.706;2023-08-30T09:10:31;6.40;;;5.50;;
5622;SDS011;2833;50.432;10.706;2023-08-30T09:12:57;6.50;;;5.80;;
5622;SDS011;2833;50.432;10.706;2023-08-30T09:15:29;7.30;;;6.40;;
5622;SDS011;2833;50.432;10.706;2023-08-30T09:17:55;6.70;;;6.00;;
5622;SDS011;2833;50.432;10.706;2023-08-30T09:20:20;7.00;;;6.27;;
5622;SDS011;2833;50.432;10.706;2023-08-30T09:22:45;6.50;;;5.90;;
5622;SDS011;2833;50.432;10.706;2023-08-30T09:25:11;10.73;;;6.10;;
5622;SDS011;2833;50.432;10.706;2023-08-30T09:27:36;6.53;;;5.83;;
5622;SDS011;2833;50.432;10.706;2023-08-30T09:30:04;6.90;;;6.20;;
5622;SDS011;2833;50.432;10.706;2023-08-30T09:32:30;6.43;;;5.73;;
5622;SDS011;2833;50.432;10.706;2023-08-30T09:34:56;7.40;;;6.20;;
5622;SDS011;2833;50.432;10.706;2023-08-30T09:37:21;7.00;;;6.10;;
5622;SDS011;2833;50.432;10.706;2023-08-30T09:39:50;7.07;;;5.83;;
5622;SDS011;2833;50.432;10.706;2023-08-30T09:42:16;8.17;;;6.00;;
5622;SDS011;2833;50.432;10.706;2023-08-30T09:44:42;6.43;;;5.80;;
5622;SDS011;2833;50.432;10.706;2023-08-30T09:47:07;6.20;;;5.60;;
5622;SDS011;2833;50.432;10.706;2023-08-30T09:49:34;7.83;;;6.50;;
5622;SDS011;2833;50.432;10.706;2023-08-30T09:52:06;7.13;;;6.20;;
5622;SDS011;2833;50.432;10.706;2023-08-30T09:54:33;6.73;;;6.00;;
5622;SDS011;2833;50.432;10.706;2023-08-30T09:56:59;7.17;;;6.17;;
5622;SDS011;2833;50.432;10.706;2023-08-30T09:59:24;8.30;;;6.70;;
5622;SDS011;2833;50.432;10.706;2023-08-30T10:01:50;7.50;;;6.70;;
5622;SDS011;2833;50.432;10.706;2023-08-30T10:04:17;8.03;;;7.23;;
5622;SDS011;2833;50.432;10.706;2023-08-30T10:06:43;7.90;;;6.27;;
5622;SDS011;2833;50.432;10.706;2023-08-30T10:09:10;7.30;;;6.20;;
5622;SDS011;2833;50.432;10.706;2023-08-30T10:11:35;7.73;;;6.93;;
5622;SDS011;2833;50.432;10.706;2023-08-30T10:14:02;6.60;;;5.90;;
5622;SDS011;2833;50.432;10.706;2023-08-30T10:16:28;8.63;;;6.33;;
5622;SDS011;2833;50.432;10.706;2023-08-30T10:18:59;6.90;;;6.20;;
5622;SDS011;2833;50.432;10.706;2023-08-30T10:21:26;7.60;;;6.20;;
5622;SDS011;2833;50.432;10.706;2023-08-30T10:23:52;6.83;;;5.60;;
5622;SDS011;2833;50.432;10.706;2023-08-30T10:26:20;6.50;;;5.80;;
5622;SDS011;2833;50.432;10.706;2023-08-30T10:28:47;6.60;;;5.90;;
5622;SDS011;2833;50.432;10.706;2023-08-30T10:31:12;7.90;;;5.83;;
5622;SDS011;2833;50.432;10.706;2023-08-30T10:33:50;6.80;;;6.10;;
5622;SDS011;2833;50.432;10.706;2023-08-30T10:36:21;7.07;;;5.47;;
5622;SDS011;2833;50.432;10.706;2023-08-30T10:38:51;7.70;;;5.93;;
5622;SDS011;2833;50.432;10.706;2023-08-30T10:41:23;10.63;;;6.30;;
5622;SDS011;2833;50.432;10.706;2023-08-30T10:43:49;7.00;;;6.00;;
5622;SDS011;2833;50.432;10.706;2023-08-30T10:46:16;7.40;;;5.87;;
5622;SDS011;2833;50.432;10.706;2023-08-30T10:48:41;7.80;;;6.97;;
5622;SDS011;2833;50.432;10.706;2023-08-30T10:51:21;6.70;;;6.10;;
5622;SDS011;2833;50.432;10.706;2023-08-30T10:53:56;6.97;;;5.60;;
5622;SDS011;2833;50.432;10.706;2023-08-30T10:56:31;11.03;;;6.70;;
5622;SDS011;2833;50.432;10.706;2023-08-30T10:58:57;10.37;;;6.80;;
5622;SDS011;2833;50.432;10.706;2023-08-30T11:01:23;7.57;;;6.10;;
5622;SDS011;2833;50.432;10.706;2023-08-30T11:03:49;9.20;;;6.53;;
5622;SDS011;2833;50.432;10.706;2023-08-30T11:06:14;8.07;;;6.23;;
5622;SDS011;2833;50.432;10.706;2023-08-30T11:08:41;8.20;;;6.50;;
5622;SDS011;2833;50.432;10.706;2023-08-30T11:11:06;9.53;;;6.10;;
5622;SDS011;2833;50.432;10.706;2023-08-30T11:13:33;7.30;;;6.00;;
5622;SDS011;2833;50.432;10.706;2023-08-30T11:16:01;8.47;;;5.23;;
5622;SDS011;2833;50.432;10.706;2023-08-30T11:18:29;10.10;;;6.30;;
5622;SDS011;2833;50.432;10.706;2023-08-30T11:21:03;7.30;;;5.60;;
5622;SDS011;2833;50.432;10.706;2023-08-30T11:23:28;12.73;;;6.03;;
5622;SDS011;2833;50.432;10.706;2023-08-30T11:25:53;6.27;;;5.67;;
5622;SDS011;2833;50.432;10.706;2023-08-30T11:28:22;6.07;;;4.90;;
5622;SDS011;2833;50.432;10.706;2023-08-30T11:30:48;7.53;;;5.70;;
5622;SDS011;2833;50.432;10.706;2023-08-30T11:33:16;7.80;;;6.10;;
5622;SDS011;2833;50.432;10.706;2023-08-30T11:35:41;8.43;;;6.40;;
5622;SDS011;2833;50.432;10.706;2023-08-30T11:38:06;5.90;;;5.23;;
5622;SDS011;2833;50.432;10.706;2023-08-30T11:40:32;6.87;;;5.43;;
5622;SDS011;2833;50.432;10.706;2023-08-30T11:42:57;6.90;;;5.60;;
5622;SDS011;2833;50.432;10.706;2023-08-30T11:45:22;7.67;;;6.23;;
5622;SDS011;2833;50.432;10.706;2023-08-30T11:47:48;6.17;;;5.30;;
5622;SDS011;2833;50.432;10.706;2023-08-30T11:50:13;7.20;;;5.97;;
5622;SDS011;2833;50.432;10.706;2023-08-30T11:52:39;7.53;;;6.17;;
5622;SDS011;2833;50.432;10.706;2023-08-30T11:55:05;6.80;;;5.70;;
5622;SDS011;2833;50.432;10.706;2023-08-30T11:57:33;9.87;;;7.13;;
5622;SDS011;2833;50.432;10.706;2023-08-30T12:00:11;9.10;;;6.83;;
5622;SDS011;2833;50.432;10.706;2023-08-30T12:02:36;9.50;;;6.87;;
5622;SDS011;2833;50.432;10.706;2023-08-30T12:05:01;8.37;;;6.67;;
5622;SDS011;2833;50.432;10.706;2023-08-30T12:07:27;7.80;;;6.53;;
5622;SDS011;2833;50.432;10.706;2023-08-30T12:09:52;8.80;;;6.30;;
5622;SDS011;2833;50.432;10.706;2023-08-30T12:12:28;9.00;;;6.13;;
5622;SDS011;2833;50.432;10.706;2023-08-30T12:14:56;8.70;;;6.93;;
5622;SDS011;2833;50.432;10.706;2023-08-30T12:17:22;13.60;;;7.00;;
5622;SDS011;2833;50.432;10.706;2023-08-30T12:19:54;9.50;;;7.27;;
5622;SDS011;2833;50.432;10.706;2023-08-30T12:22:20;7.50;;;6.50;;
5622;SDS011;2833;50.432;10.706;2023-08-30T12:24:45;11.40;;;7.37;;
5622;SDS011;2833;50.432;10.706;2023-08-30T12:27:10;9.20;;;6.93;;
5622;SDS011;2833;50.432;10.706;2023-08-30T12:29:35;8.00;;;6.40;;
5622;SDS011;2833;50.432;10.706;2023-08-30T12:32:01;9.20;;;5.47;;
5622;SDS011;2833;50.432;10.706;2023-08-30T12:34:26;9.30;;;7.23;;
5622;SDS011;2833;50.432;10.706;2023-08-30T12:36:51;6.60;;;5.77;;
5622;SDS011;2833;50.432;10.706;2023-08-30T12:39:16;7.50;;;6.10;;
5622;SDS011;2833;50.432;10.706;2023-08-30T12:41:42;9.53;;;8.07;;
5622;SDS011;2833;50.432;10.706;2023-08-30T12:44:07;11.90;;;6.90;;
5622;SDS011;2833;50.432;10.706;2023-08-30T12:46:33;6.73;;;5.97;;
5622;SDS011;2833;50.432;10.706;2023-08-30T12:48:58;10.63;;;7.63;;
5622;SDS011;2833;50.432;10.706;2023-08-30T12:51:23;10.10;;;7.40;;
5622;SDS011;2833;50.432;10.706;2023-08-30T12:53:49;9.60;;;7.60;;
5622;SDS011;2833;50.432;10.706;2023-08-30T12:56:14;10.10;;;8.60;;
5622;SDS011;2833;50.432;10.706;2023-08-30T12:58:39;13.07;;;7.67;;
5622;SDS011;2833;50.432;10.706;2023-08-30T13:01:04;9.23;;;7.50;;
5622;SDS011;2833;50.432;10.706;2023-08-30T13:03:29;13.03;;;8.87;;
5622;SDS011;2833;50.432;10.706;2023-08-30T13:05:55;9.00;;;7.20;;
5622;SDS011;2833;50.432;10.706;2023-08-30T13:08:20;8.63;;;7.10;;
5622;SDS011;2833;50.432;10.706;2023-08-30T13:10:45;11.93;;;8.93;;
5622;SDS011;2833;50.432;10.706;2023-08-30T13:13:10;10.47;;;8.00;;
5622;SDS011;2833;50.432;10.706;2023-08-30T13:15:35;8.83;;;7.30;;
5622;SDS011;2833;50.432;10.706;2023-08-30T13:18:01;11.07;;;8.00;;
5622;SDS011;2833;50.432;10.706;2023-08-30T13:20:26;9.30;;;7.80;;
5622;SDS011;2833;50.432;10.706;2023-08-30T13:22:51;8.37;;;7.23;;
5622;SDS011;2833;50.432;10.706;2023-08-30T13:25:16;10.00;;;6.70;;
5622;SDS011;2833;50.432;10.706;2023-08-30T13:27:41;10.90;;;7.60;;
5622;SDS011;2833;50.432;10.706;2023-08-30T13:30:07;9.10;;;7.07;;
5622;SDS011;2833;50.432;10.706;2023-08-30T13:32:32;8.50;;;6.93;;
5622;SDS011;2833;50.432;10.706;2023-08-30T13:34:58;8.60;;;6.80;;
5622;SDS011;2833;50.432;10.706;2023-08-30T13:37:24;9.47;;;7.33;;
5622;SDS011;2833;50.432;10.706;2023-08-30T13:39:50;7.90;;;6.43;;
5622;SDS011;2833;50.432;10.706;2023-08-30T13:42:15;7.03;;;6.03;;
5622;SDS011;2833;50.432;10.706;2023-08-30T13:44:40;10.00;;;6.47;;
5622;SDS011;2833;50.432;10.706;2023-08-30T13:47:07;9.50;;;5.97;;
5622;SDS011;2833;50.432;10.706;2023-08-30T13:49:32;9.13;;;6.93;;
5622;SDS011;2833;50.432;10.706;2023-08-30T13:51:58;9.17;;;6.90;;
5622;SDS011;2833;50.432;10.706;2023-08-30T13:54:23;9.33;;;7.10;;
5622;SDS011;2833;50.432;10.706;2023-08-30T13:56:48;8.90;;;6.93;;
5622;SDS011;2833;50.432;10.706;2023-08-30T13:59:14;9.97;;;7.70;;
5622;SDS011;2833;50.432;10.706;2023-08-30T14:01:40;7.77;;;6.30;;
5622;SDS011;2833;50.432;10.706;2023-08-30T14:04:05;9.27;;;6.73;;
5622;SDS011;2833;50.432;10.706;2023-08-30T14:06:30;7.13;;;5.73;;
5622;SDS011;2833;50.432;10.706;2023-08-30T14:08:57;6.73;;;4.93;;
5622;SDS011;2833;50.432;10.706;2023-08-30T14:11:22;5.83;;;4.50;;
5622;SDS011;2833;50.432;10.706;2023-08-30T14:13:47;5.57;;;4.33;;
5622;SDS011;2833;50.432;10.706;2023-08-30T14:16:13;4.70;;;4.20;;
5622;SDS011;2833;50.432;10.706;2023-08-30T14:18:38;7.00;;;5.13;;
5622;SDS011;2833;50.432;10.706;2023-08-30T14:21:03;8.20;;;5.30;;
5622;SDS011;2833;50.432;10.706;2023-08-30T14:23:29;6.60;;;4.70;;
5622;SDS011;2833;50.432;10.706;2023-08-30T14:26:04;5.97;;;5.37;;
5622;SDS011;2833;50.432;10.706;2023-08-30T14:28:38;7.80;;;5.20;;
5622;SDS011;2833;50.432;10.706;2023-08-30T14:31:03;6.43;;;5.10;;
5622;SDS011;2833;50.432;10.706;2023-08-30T14:33:31;6.40;;;5.10;;
5622;SDS011;2833;50.432;10.706;2023-08-30T14:35:56;6.90;;;5.47;;
5622;SDS011;2833;50.432;10.706;2023-08-30T14:38:22;11.30;;;6.07;;
5622;SDS011;2833;50.432;10.706;2023-08-30T14:40:56;6.00;;;5.40;;
5622;SDS011;2833;50.432;10.706;2023-08-30T14:43:22;5.70;;;4.83;;
5622;SDS011;2833;50.432;10.706;2023-08-30T14:45:47;6.90;;;5.40;;
5622;SDS011;2833;50.432;10.706;2023-08-30T14:48:12;8.80;;;5.57;;
5622;SDS011;2833;50.432;10.706;2023-08-30T14:50:38;6.33;;;4.90;;
5622;SDS011;2833;50.432;10.706;2023-08-30T14:53:03;4.93;;;3.97;;
5622;SDS011;2833;50.432;10.706;2023-08-30T14:55:29;5.70;;;4.17;;
5622;SDS011;2833;50.432;10.706;2023-08-30T14:57:54;5.87;;;5.00;;